createdAt,value
2018-07-19T00:01:27.626Z,100256.80
2018-07-19T00:04:09.456Z,100256.74
2018-07-19T00:06:49.258Z,100256.34
2018-07-19T00:09:29.983Z,100255.53
2018-07-19T00:12:10.332Z,100255.16
2018-07-19T00:14:51.464Z,100254.17
2018-07-19T00:17:39.215Z,100256.52
2018-07-19T00:20:22.520Z,100251.06
2018-07-19T00:23:02.216Z,100249.96
2018-07-19T00:25:44.560Z,100252.80
2018-07-19T00:28:25.685Z,100255.12
2018-07-19T00:31:05.253Z,100254.98
2018-07-19T00:33:46.354Z,100263.23
2018-07-19T00:36:26.155Z,100260.03
2018-07-19T00:39:09.673Z,100252.76
2018-07-19T00:41:53.740Z,100253.91
2018-07-19T00:44:31.889Z,100252.25
2018-07-19T00:47:10.440Z,100254.10
2018-07-19T00:49:50.458Z,100257.25
2018-07-19T00:52:30.499Z,100262.69
2018-07-19T00:55:11.303Z,100256.50
2018-07-19T00:57:54.228Z,100254.70
2018-07-19T01:00:35.514Z,100264.05
2018-07-19T01:03:21.773Z,100260.84
2018-07-19T01:06:04.620Z,100262.30
2018-07-19T01:08:45.851Z,100262.73
2018-07-19T01:11:27.590Z,100261.27
2018-07-19T01:14:08.996Z,100258.33
2018-07-19T01:16:48.502Z,100262.31
2018-07-19T01:19:28.878Z,100253.83
2018-07-19T01:22:09.535Z,100252.61
2018-07-19T01:25:09.233Z,100258.62
2018-07-19T01:27:50.541Z,100263.14
2018-07-19T01:30:31.999Z,100262.75
2018-07-19T01:33:13.336Z,100262.97
2018-07-19T01:35:56.890Z,100261.17
2018-07-19T01:38:49.833Z,100267.14
2018-07-19T01:42:14.556Z,100265.78
2018-07-19T01:44:54.184Z,100266.95
2018-07-19T01:47:35.396Z,100267.11
2018-07-19T01:50:16.062Z,100260.28
2018-07-19T01:52:55.531Z,100266.20
2018-07-19T01:55:35.306Z,100265.09
2018-07-19T01:58:14.426Z,100268.29
2018-07-19T02:00:56.037Z,100270.51
2018-07-19T02:03:38.044Z,100273.34
2018-07-19T02:06:18.533Z,100270.72
2018-07-19T02:08:58.937Z,100271.16
2018-07-19T02:11:39.383Z,100269.50
2018-07-19T02:14:20.322Z,100266.53
2018-07-19T02:16:57.704Z,100263.80
2018-07-19T02:19:36.569Z,100265.66
2018-07-19T02:22:14.434Z,100264.16
2018-07-19T02:24:52.499Z,100267.98
2018-07-19T02:27:31.436Z,100270.84
2018-07-19T02:30:08.392Z,100266.63
2018-07-19T02:32:46.099Z,100265.73
2018-07-19T02:35:26.584Z,100268.55
2018-07-19T02:38:04.041Z,100270.75
2018-07-19T02:40:41.328Z,100272.13
2018-07-19T02:43:20.372Z,100267.35
2018-07-19T02:45:58.236Z,100262.34
2018-07-19T02:48:35.936Z,100262.70
2018-07-19T02:51:14.563Z,100261.63
2018-07-19T02:53:52.047Z,100266.27
2018-07-19T02:56:30.284Z,100260.80
2018-07-19T02:59:11.048Z,100262.27
2018-07-19T03:01:50.212Z,100261.56
2018-07-19T03:04:28.764Z,100259.71
2018-07-19T03:07:07.248Z,100261.83
2018-07-19T03:09:45.581Z,100257.52
2018-07-19T03:12:22.850Z,100257.24
2018-07-19T03:15:03.289Z,100256.76
2018-07-19T03:17:41.456Z,100257.55
2018-07-19T03:20:20.524Z,100259.06
2018-07-19T03:22:59.200Z,100261.34
2018-07-19T03:25:37.621Z,100260.66
2018-07-19T03:28:19.553Z,100257.74
2018-07-19T03:30:57.989Z,100255.27
2018-07-19T03:33:36.420Z,100258.30
2018-07-19T03:36:16.084Z,100260.81
2018-07-19T03:38:53.408Z,100255.25
2018-07-19T03:41:32.660Z,100256.94
2018-07-19T03:44:11.440Z,100259.25
2018-07-19T03:46:49.600Z,100256.58
2018-07-19T03:49:27.746Z,100256.09
2018-07-19T03:52:05.721Z,100254.16
2018-07-19T03:54:43.136Z,100258.39
2018-07-19T03:57:20.453Z,100262.17
2018-07-19T03:59:58.153Z,100261.03
2018-07-19T04:02:35.579Z,100263.78
2018-07-19T04:05:12.875Z,100262.72
2018-07-19T04:07:51.137Z,100262.05
2018-07-19T04:10:28.336Z,100267.27
2018-07-19T04:13:05.883Z,100266.35
2018-07-19T04:15:45.253Z,100271.22
2018-07-19T04:18:22.576Z,100268.88
2018-07-19T04:21:00.697Z,100269.09
2018-07-19T04:23:39.876Z,100265.33
2018-07-19T04:26:17.668Z,100267.07
2018-07-19T04:28:54.851Z,100265.34
2018-07-19T04:31:32.808Z,100260.81
2018-07-19T04:34:10.035Z,100264.27
2018-07-19T04:36:47.293Z,100270.70
2018-07-19T04:39:25.844Z,100268.84
2018-07-19T04:42:04.436Z,100272.07
2018-07-19T04:44:41.868Z,100266.41
2018-07-19T04:47:20.553Z,100265.94
2018-07-19T04:49:58.127Z,100262.45
2018-07-19T04:52:36.980Z,100260.72
2018-07-19T04:55:17.089Z,100262.91
2018-07-19T04:57:55.368Z,100265.47
2018-07-19T05:00:32.744Z,100267.34
2018-07-19T05:03:12.024Z,100270.28
2018-07-19T05:05:51.799Z,100272.07
2018-07-19T05:08:29.360Z,100271.03
2018-07-19T05:11:13.052Z,100271.86
2018-07-19T05:13:52.445Z,100276.62
2018-07-19T05:16:30.640Z,100277.14
2018-07-19T05:19:10.403Z,100277.09
2018-07-19T05:21:47.812Z,100278.11
2018-07-19T05:24:26.227Z,100281.20
2018-07-19T05:27:07.696Z,100282.85
2018-07-19T05:29:47.297Z,100277.09
2018-07-19T05:32:25.945Z,100275.56
2018-07-19T05:35:04.396Z,100276.73
2018-07-19T05:37:42.946Z,100279.02
2018-07-19T05:40:20.754Z,100277.80
2018-07-19T05:42:59.332Z,100276.67
2018-07-19T05:45:38.394Z,100274.89
2018-07-19T05:48:17.678Z,100270.26
2018-07-19T05:50:55.553Z,100272.31
2018-07-19T05:53:33.705Z,100269.56
2018-07-19T05:56:11.508Z,100270.84
2018-07-19T05:58:51.402Z,100269.01
2018-07-19T06:01:31.331Z,100272.33
2018-07-19T06:04:15.422Z,100276.36
2018-07-19T06:06:56.428Z,100272.50
2018-07-19T06:09:39.505Z,100268.80
2018-07-19T06:12:17.493Z,100271.75
2018-07-19T06:14:54.548Z,100267.13
2018-07-19T06:17:33.120Z,100272.45
2018-07-19T06:20:11.341Z,100274.67
2018-07-19T06:22:48.674Z,100275.25
2018-07-19T06:25:28.912Z,100274.20
2018-07-19T06:28:14.711Z,100277.45
2018-07-19T06:30:54.183Z,100278.62
2018-07-19T06:33:35.698Z,100274.37
2018-07-19T06:36:15.965Z,100274.77
2018-07-19T06:38:56.240Z,100275.27
2018-07-19T06:41:34.733Z,100268.27
2018-07-19T06:44:12.033Z,100270.53
2018-07-19T06:46:50.943Z,100272.17
2018-07-19T06:49:31.324Z,100272.06
2018-07-19T06:52:09.557Z,100273.21
2018-07-19T06:54:47.461Z,100275.63
2018-07-19T06:57:27.389Z,100274.30
2018-07-19T07:00:07.455Z,100267.16
2018-07-19T07:02:45.084Z,100276.88
2018-07-19T07:05:22.732Z,100274.74
2018-07-19T07:08:00.961Z,100269.64
2018-07-19T07:10:43.948Z,100274.16
2018-07-19T07:13:21.388Z,100272.44
2018-07-19T07:16:01.849Z,100272.11
2018-07-19T07:18:41.023Z,100276.83
2018-07-19T07:21:19.302Z,100272.91
2018-07-19T07:23:58.083Z,100275.95
2018-07-19T07:26:35.348Z,100276.86
2018-07-19T07:29:14.590Z,100274.20
2018-07-19T07:31:54.897Z,100278.81
2018-07-19T07:34:33.670Z,100284.11
2018-07-19T07:37:11.241Z,100284.89
2018-07-19T07:39:48.765Z,100283.83
2018-07-19T07:42:27.928Z,100284.91
2018-07-19T07:45:13.686Z,100288.98
2018-07-19T07:47:54.054Z,100293.00
2018-07-19T07:50:33.508Z,100292.00
2018-07-19T07:53:11.291Z,100288.53
2018-07-19T07:55:50.693Z,100294.09
2018-07-19T07:58:28.960Z,100297.66
2018-07-19T08:01:08.836Z,100292.55
2018-07-19T08:03:49.068Z,100297.34
2018-07-19T08:06:26.714Z,100295.98
2018-07-19T08:09:08.924Z,100297.80
2018-07-19T08:11:47.277Z,100295.38
2018-07-19T08:14:25.930Z,100293.89
2018-07-19T08:17:07.321Z,100297.22
2018-07-19T08:19:46.471Z,100293.02
2018-07-19T08:22:24.792Z,100290.89
2018-07-19T08:25:07.124Z,100291.09
2018-07-19T08:27:46.728Z,100295.91
2018-07-19T08:30:25.528Z,100295.27
2018-07-19T08:33:05.069Z,100291.13
2018-07-19T08:35:44.502Z,100291.64
2018-07-19T08:38:22.872Z,100283.63
2018-07-19T08:41:01.476Z,100283.38
2018-07-19T08:43:40.329Z,100282.59
2018-07-19T08:46:19.992Z,100279.84
2018-07-19T08:48:59.345Z,100279.56
2018-07-19T08:51:37.727Z,100283.45
2018-07-19T08:54:15.075Z,100281.31
2018-07-19T08:56:55.794Z,100281.37
2018-07-19T08:59:35.340Z,100275.17
2018-07-19T09:02:12.731Z,100271.12
2018-07-19T09:04:51.879Z,100272.86
2018-07-19T09:07:29.707Z,100272.68
2018-07-19T09:10:09.524Z,100270.34
2018-07-19T09:12:49.471Z,100267.59
2018-07-19T09:15:29.696Z,100261.39
2018-07-19T09:18:12.310Z,100263.18
2018-07-19T09:20:50.949Z,100262.39
2018-07-19T09:23:29.256Z,100259.75
2018-07-19T09:26:11.306Z,100259.62
2018-07-19T09:28:51.539Z,100259.11
2018-07-19T09:31:31.806Z,100254.45
2018-07-19T09:34:09.485Z,100245.91
2018-07-19T09:36:51.224Z,100253.41
2018-07-19T09:39:31.115Z,100246.38
2018-07-19T09:42:14.035Z,100239.50
2018-07-19T09:44:54.115Z,100237.80
2018-07-19T09:47:33.638Z,100246.12
2018-07-19T09:53:23.955Z,100238.53
2018-07-19T09:56:04.549Z,100238.99
2018-07-19T09:58:42.620Z,100237.37
2018-07-19T10:01:23.576Z,100235.64
2018-07-19T10:04:02.451Z,100238.43
2018-07-19T10:06:41.627Z,100236.63
2018-07-19T10:09:24.173Z,100231.52
2018-07-19T10:12:06.763Z,100232.09
2018-07-19T10:14:44.467Z,100236.75
2018-07-19T10:17:25.248Z,100231.66
2018-07-19T10:20:05.789Z,100228.31
2018-07-19T10:22:45.818Z,100223.41
2018-07-19T10:25:29.501Z,100226.53
2018-07-19T10:28:06.941Z,100219.15
2018-07-19T10:30:45.524Z,100223.57
2018-07-19T10:33:27.023Z,100219.70
2018-07-19T10:36:09.363Z,100215.03
2018-07-19T10:38:46.952Z,100208.23
2018-07-19T10:41:25.746Z,100209.42
2018-07-19T10:44:04.344Z,100213.95
2018-07-19T10:46:44.327Z,100212.00
2018-07-19T10:49:21.889Z,100210.30
2018-07-19T10:51:59.448Z,100207.59
2018-07-19T10:54:37.813Z,100211.31
2018-07-19T10:57:16.560Z,100208.51
2018-07-19T10:59:54.075Z,100206.06
2018-07-19T11:02:32.523Z,100208.11
2018-07-19T11:05:10.744Z,100212.00
2018-07-19T11:07:48.301Z,100204.45
2018-07-19T11:10:26.089Z,100195.81
2018-07-19T11:13:06.363Z,100199.09
2018-07-19T11:15:43.646Z,100193.49
2018-07-19T11:18:24.378Z,100194.27
2018-07-19T11:21:02.723Z,100192.94
2018-07-19T11:23:41.933Z,100196.80
2018-07-19T11:26:27.956Z,100191.31
2018-07-19T11:29:07.403Z,100190.27
2018-07-19T11:31:47.521Z,100183.42
2018-07-19T11:34:26.560Z,100180.13
2018-07-19T11:37:03.768Z,100178.48
2018-07-19T11:39:42.043Z,100178.59
2018-07-19T11:42:20.981Z,100180.45
2018-07-19T11:44:58.511Z,100175.72
2018-07-19T11:47:37.737Z,100169.16
2018-07-19T11:50:17.890Z,100169.77
2018-07-19T11:52:57.760Z,100171.39
2018-07-19T11:55:39.871Z,100165.73
2018-07-19T11:58:17.392Z,100168.80
2018-07-19T12:00:56.460Z,100166.38
2018-07-19T12:03:39.449Z,100172.02
2018-07-19T12:06:23.589Z,100162.55
2018-07-19T12:09:07.888Z,100159.72
2018-07-19T12:11:47.609Z,100159.37
2018-07-19T12:14:33.071Z,100157.56
2018-07-19T12:17:10.330Z,100148.41
2018-07-19T12:19:49.076Z,100147.12
2018-07-19T12:22:28.188Z,100148.86
2018-07-19T12:25:06.744Z,100144.93
2018-07-19T12:27:45.074Z,100154.34
2018-07-19T12:30:24.069Z,100152.88
2018-07-19T12:33:01.797Z,100140.16
2018-07-19T12:35:39.223Z,100141.33
2018-07-19T12:38:18.218Z,100140.17
2018-07-19T12:40:58.507Z,100137.44
2018-07-19T12:43:37.392Z,100139.40
2018-07-19T12:46:17.823Z,100138.02
2018-07-19T12:48:56.935Z,100138.45
2018-07-19T12:51:35.305Z,100136.20
2018-07-19T12:54:13.180Z,100127.72
2018-07-19T12:56:52.084Z,100129.34
2018-07-19T12:59:29.550Z,100124.25
2018-07-19T13:02:11.284Z,100131.78
2018-07-19T13:04:50.416Z,100130.42
2018-07-19T13:07:27.759Z,100128.14
2018-07-19T13:10:08.127Z,100122.26
2018-07-19T13:12:46.729Z,100125.38
2018-07-19T13:15:25.878Z,100130.78
2018-07-19T13:18:03.690Z,100126.19
2018-07-19T13:20:43.629Z,100119.12
2018-07-19T13:23:26.239Z,100120.86
2018-07-19T13:26:04.503Z,100116.42
2018-07-19T13:28:42.676Z,100114.57
2018-07-19T13:31:23.296Z,100116.45
2018-07-19T13:34:01.152Z,100121.70
2018-07-19T13:36:39.323Z,100115.55
2018-07-19T13:39:17.304Z,100116.64
2018-07-19T13:41:55.771Z,100114.94
2018-07-19T13:44:33.831Z,100107.83
2018-07-19T13:47:12.060Z,100109.06
2018-07-19T13:49:53.289Z,100108.78
2018-07-19T13:52:54.773Z,100107.56
2018-07-19T13:55:32.601Z,100106.41
2018-07-19T13:58:10.900Z,100107.47
2018-07-19T14:00:48.691Z,100105.73
2018-07-19T14:03:26.326Z,100101.19
2018-07-19T14:06:08.760Z,100102.34
2018-07-19T14:08:47.301Z,100094.67
2018-07-19T14:11:24.472Z,100095.97
2018-07-19T14:14:03.275Z,100081.88
2018-07-19T14:16:42.803Z,100085.56
2018-07-19T14:19:20.301Z,100081.19
2018-07-19T14:22:03.282Z,100081.93
2018-07-19T14:24:48.304Z,100083.30
2018-07-19T14:27:28.329Z,100078.72
2018-07-19T14:30:11.960Z,100080.84
2018-07-19T14:32:56.637Z,100083.39
2018-07-19T14:35:39.644Z,100079.51
2018-07-19T14:38:17.373Z,100070.22
2018-07-19T14:40:56.501Z,100075.00
2018-07-19T14:43:42.247Z,100076.88
2018-07-19T14:46:22.768Z,100072.95
2018-07-19T14:49:09.580Z,100072.02
2018-07-19T14:51:47.771Z,100069.55
2018-07-19T14:54:26.644Z,100063.91
2018-07-19T14:57:05.276Z,100048.00
2018-07-19T14:59:44.520Z,100053.16
2018-07-19T15:02:22.704Z,100056.49
2018-07-19T15:05:05.944Z,100056.49
2018-07-19T15:07:43.347Z,100059.44
2018-07-19T15:10:22.416Z,100054.72
2018-07-19T15:13:01.578Z,100053.16
2018-07-19T15:15:41.013Z,100047.47
2018-07-19T15:18:19.712Z,100050.57
2018-07-19T15:21:02.878Z,100052.67
2018-07-19T15:23:41.699Z,100043.45
2018-07-19T15:26:20.217Z,100050.28
2018-07-19T15:29:00.256Z,100043.92
2018-07-19T15:31:39.215Z,100032.41
2018-07-19T15:34:20.054Z,100031.23
2018-07-19T15:36:57.525Z,100024.41
2018-07-19T15:39:37.324Z,100022.23
2018-07-19T15:42:21.081Z,100032.91
2018-07-19T15:45:06.317Z,100024.56
2018-07-19T15:47:48.200Z,100023.08
2018-07-19T15:50:44.873Z,100023.61
2018-07-19T15:53:27.650Z,100019.03
2018-07-19T15:56:13.520Z,100008.75
2018-07-19T15:58:52.486Z,100008.17
2018-07-19T16:01:31.121Z,100014.16
2018-07-19T16:04:08.576Z,100008.83
2018-07-19T16:06:49.337Z,100003.11
2018-07-19T16:09:28.499Z,100003.56
2018-07-19T16:12:07.968Z,100005.60
2018-07-19T16:14:47.525Z,100001.30
2018-07-19T16:17:28.756Z,99999.16
2018-07-19T16:20:09.792Z,99999.52
2018-07-19T16:22:52.741Z,99991.44
2018-07-19T16:25:30.331Z,99994.88
2018-07-19T16:28:07.883Z,99989.17
2018-07-19T16:30:47.350Z,99979.63
2018-07-19T16:33:27.754Z,99988.02
2018-07-19T16:36:08.782Z,99981.45
2018-07-19T16:38:56.104Z,99983.65
2018-07-19T16:41:37.308Z,99978.05
2018-07-19T16:44:16.944Z,99975.26
2018-07-19T16:46:57.438Z,99976.94
2018-07-19T16:49:37.977Z,99976.91
2018-07-19T16:52:16.053Z,99973.39
2018-07-19T16:54:55.701Z,99974.73
2018-07-19T16:57:34.038Z,99971.18
2018-07-19T17:00:18.002Z,99973.97
2018-07-19T17:02:56.106Z,99969.70
2018-07-19T17:05:34.370Z,99962.55
2018-07-19T17:08:12.203Z,99962.72
2018-07-19T17:10:49.824Z,99959.76
2018-07-19T17:13:27.126Z,99960.95
2018-07-19T17:16:07.152Z,99964.75
2018-07-19T17:18:46.498Z,99962.64
2018-07-19T17:21:25.817Z,99959.89
2018-07-19T17:24:04.269Z,99954.50
2018-07-19T17:26:41.722Z,99964.18
2018-07-19T17:29:21.221Z,99954.95
2018-07-19T17:31:59.863Z,99952.84
2018-07-19T17:34:38.203Z,99954.98
2018-07-19T17:37:17.115Z,99953.83
2018-07-19T17:39:55.220Z,99951.36
2018-07-19T17:42:34.043Z,99951.72
2018-07-19T17:45:22.542Z,99948.89
2018-07-19T17:48:01.761Z,99944.41
2018-07-19T17:50:41.327Z,99948.06
2018-07-19T17:53:22.303Z,99948.27
2018-07-19T17:56:01.893Z,99948.30
2018-07-19T17:58:41.112Z,99944.56
2018-07-19T18:01:21.569Z,99940.94
2018-07-19T18:03:59.689Z,99943.92
2018-07-19T18:06:54.195Z,99942.37
2018-07-19T18:09:32.882Z,99946.11
2018-07-19T18:12:19.686Z,99943.64
2018-07-19T18:14:57.095Z,99948.42
2018-07-19T18:17:35.236Z,99942.77
2018-07-19T18:20:13.957Z,99941.52
2018-07-19T18:22:53.571Z,99943.75
2018-07-19T18:25:34.496Z,99940.10
2018-07-19T18:28:21.068Z,99945.65
2018-07-19T18:31:00.425Z,99947.89
2018-07-19T18:33:38.782Z,99942.86
2018-07-19T18:36:18.044Z,99942.81
2018-07-19T18:38:57.697Z,99943.07
2018-07-19T18:41:39.885Z,99940.02
2018-07-19T18:44:18.532Z,99938.03
2018-07-19T18:46:56.961Z,99943.52
2018-07-19T18:49:36.824Z,99942.99
2018-07-19T18:52:14.824Z,99940.34
2018-07-19T18:54:58.805Z,99948.06
2018-07-19T18:57:43.402Z,99945.79
2018-07-19T19:00:23.785Z,99948.70
2018-07-19T19:03:05.277Z,99950.55
2018-07-19T19:05:42.764Z,99952.83
2018-07-19T19:08:23.708Z,99952.19
2018-07-19T19:11:06.784Z,99955.80
2018-07-19T19:13:44.199Z,99959.09
2018-07-19T19:16:22.821Z,99955.36
2018-07-19T19:19:02.998Z,99956.13
2018-07-19T19:21:43.088Z,99963.95
2018-07-19T19:24:22.452Z,99965.42
2018-07-19T19:27:01.449Z,99966.20
2018-07-19T19:29:39.432Z,99964.09
2018-07-19T19:32:17.488Z,99969.02
2018-07-19T19:34:56.156Z,99967.34
2018-07-19T19:37:36.115Z,99976.20
2018-07-19T19:40:14.278Z,99974.50
2018-07-19T19:42:55.340Z,99975.06
2018-07-19T19:45:34.412Z,99975.00
2018-07-19T19:48:15.145Z,99973.17
2018-07-19T19:50:55.135Z,99975.30
2018-07-19T19:53:37.067Z,99977.11
2018-07-19T19:56:21.155Z,99978.32
2018-07-19T19:58:58.572Z,99978.60
2018-07-19T20:01:39.723Z,99975.23
2018-07-19T20:04:22.686Z,99967.73
2018-07-19T20:07:29.825Z,99973.98
2018-07-19T20:10:09.547Z,99976.30
2018-07-19T20:12:53.612Z,99981.31
2018-07-19T20:15:33.860Z,99980.08
2018-07-19T20:18:22.785Z,99984.34
2018-07-19T20:21:01.795Z,99980.64
2018-07-19T20:23:42.375Z,99982.44
2018-07-19T20:26:22.850Z,99975.40
2018-07-19T20:29:03.656Z,99978.05
2018-07-19T20:31:44.156Z,99979.91
2018-07-19T20:34:23.713Z,99976.55
2018-07-19T20:37:02.523Z,99976.70
2018-07-19T20:39:44.963Z,99978.52
2018-07-19T20:42:24.896Z,99976.66
2018-07-19T20:45:10.540Z,99982.39
2018-07-19T20:47:51.829Z,99988.31
2018-07-19T20:50:24.731Z,99997.61
2018-07-19T20:53:02.620Z,99995.85
2018-07-19T20:55:38.425Z,99994.16
2018-07-19T20:58:11.920Z,99996.10
2018-07-19T21:00:50.247Z,99995.06
2018-07-19T21:03:28.307Z,99999.53
2018-07-19T21:06:02.936Z,99997.56
2018-07-19T21:09:28.841Z,99998.88
2018-07-19T21:12:27.537Z,100008.75
2018-07-19T21:15:29.045Z,100009.34
2018-07-19T21:18:10.914Z,100011.78
2018-07-19T21:20:50.651Z,100010.23
2018-07-19T21:23:34.616Z,100007.98
2018-07-19T21:26:10.539Z,100011.78
2018-07-19T21:28:45.425Z,100006.92
2018-07-19T21:31:19.926Z,99999.56
2018-07-19T21:34:09.784Z,100004.14
2018-07-19T21:37:18.640Z,100000.90
2018-07-19T21:40:01.227Z,99999.87
2018-07-19T21:42:39.295Z,100004.29
2018-07-19T21:45:22.976Z,100005.19
2018-07-19T21:47:57.782Z,100009.96
2018-07-19T21:50:35.541Z,100011.09
2018-07-19T21:53:10.957Z,100013.05
2018-07-19T21:55:44.526Z,100009.20
2018-07-19T21:58:18.759Z,100010.52
2018-07-19T22:01:09.288Z,100009.53
2018-07-19T22:03:55.454Z,100010.34
2018-07-19T22:06:43.337Z,100014.84
2018-07-19T22:09:16.950Z,100013.58
2018-07-19T22:11:52.731Z,100010.03
2018-07-19T22:14:26.320Z,100011.31
2018-07-19T22:16:58.985Z,100007.73
2018-07-19T22:19:32.328Z,100011.77
2018-07-19T22:22:04.775Z,100011.72
2018-07-19T22:24:40.302Z,100019.08
2018-07-19T22:27:17.169Z,100021.34
2018-07-19T22:29:53.207Z,100016.43
2018-07-19T22:32:28.075Z,100019.12
2018-07-19T22:35:03.845Z,100018.06
2018-07-19T22:37:38.542Z,100020.10
2018-07-19T22:40:15.665Z,100023.78
2018-07-19T22:42:50.271Z,100032.83
2018-07-19T22:45:24.148Z,100031.91
2018-07-19T22:47:59.007Z,100027.89
2018-07-19T22:50:33.280Z,100028.52
2018-07-19T22:53:07.052Z,100024.92
2018-07-19T22:55:39.976Z,100027.50
2018-07-19T22:58:12.831Z,100024.18
2018-07-19T23:00:45.459Z,100024.48
2018-07-19T23:03:18.715Z,100017.88
2018-07-19T23:05:53.081Z,100019.77
2018-07-19T23:08:26.004Z,100014.83
2018-07-19T23:11:01.554Z,100015.98
2018-07-19T23:13:36.664Z,100013.11
2018-07-19T23:16:11.853Z,100020.61
2018-07-19T23:18:46.202Z,100016.89
2018-07-19T23:21:22.862Z,100012.89
2018-07-19T23:23:58.438Z,100014.78
2018-07-19T23:26:31.729Z,100015.80
2018-07-19T23:29:07.142Z,100008.80
2018-07-19T23:31:41.157Z,100012.82
2018-07-19T23:34:16.911Z,100012.83
2018-07-19T23:36:56.244Z,100014.03
2018-07-19T23:39:40.289Z,100015.34
2018-07-19T23:42:23.039Z,100012.77
2018-07-19T23:45:19.480Z,100008.70
2018-07-19T23:47:54.716Z,100008.86
2018-07-19T23:50:28.323Z,100006.08
2018-07-19T23:53:00.768Z,100003.42
2018-07-19T23:55:33.440Z,100001.94
2018-07-19T23:58:06.319Z,100002.30
